RPA1412 KJFK-KCMH
Flight info
| Callsign | RPA1412 |
|---|---|
| Flight time | 1h 18m |
| Altitude | 30000 |
| Route | RBV Q430 AIR CLPRR3 |
| Aircraft | E75L/M-SDE3GILORVW/S |
Departure
| Time | 2026-05-05 22:52 |
|---|---|
| Airport | John F. Kennedy International Airport (KJFK) |
Arrival
| Time | 2026-05-06 00:10 |
|---|---|
| Airport | John Glenn Columbus International Airport (KCMH) |
| Time | Latitude | Longitude | Altitude | Speed | Heading |
|---|---|---|---|---|---|
| 2026-05-05 22:16 | 40.65028 | -73.79352 | 15 ft | 0 kts | 150° |
| 2026-05-05 22:35 | 40.65042 | -73.79364 | 17 ft | 2 kts | 144° |
| 2026-05-05 22:35 | 40.65055 | -73.79378 | 17 ft | 2 kts | 135° |
| 2026-05-05 22:35 | 40.65065 | -73.79395 | 18 ft | 2 kts | 116° |
| 2026-05-05 22:35 | 40.65068 | -73.79417 | 15 ft | 2 kts | 83° |
| 2026-05-05 22:36 | 40.65064 | -73.79435 | 15 ft | 1 kts | 63° |
| 2026-05-05 22:36 | 40.65063 | -73.79437 | 15 ft | 0 kts | 62° |
| 2026-05-05 22:39 | 40.65065 | -73.79433 | 17 ft | 2 kts | 62° |
| 2026-05-05 22:39 | 40.65076 | -73.79407 | 15 ft | 5 kts | 60° |
| 2026-05-05 22:40 | 40.65094 | -73.79366 | 18 ft | 6 kts | 60° |
| 2026-05-05 22:40 | 40.65125 | -73.79324 | 15 ft | 8 kts | 29° |
| 2026-05-05 22:40 | 40.65177 | -73.79323 | 15 ft | 9 kts | 334° |
| 2026-05-05 22:40 | 40.65231 | -73.79362 | 15 ft | 3 kts | 330° |
| 2026-05-05 22:41 | 40.65253 | -73.79371 | 19 ft | 2 kts | 1° |
| 2026-05-05 22:41 | 40.65262 | -73.79367 | 17 ft | 4 kts | 25° |
| 2026-05-05 22:41 | 40.65285 | -73.79319 | 19 ft | 8 kts | 73° |
| 2026-05-05 22:41 | 40.65290 | -73.79241 | 18 ft | 10 kts | 94° |
| 2026-05-05 22:42 | 40.65274 | -73.79147 | 20 ft | 12 kts | 108° |
| 2026-05-05 22:42 | 40.65248 | -73.79042 | 20 ft | 13 kts | 108° |
| 2026-05-05 22:42 | 40.65222 | -73.78929 | 18 ft | 13 kts | 100° |
| 2026-05-05 22:42 | 40.65223 | -73.78810 | 19 ft | 14 kts | 77° |
| 2026-05-05 22:43 | 40.65264 | -73.78694 | 18 ft | 12 kts | 61° |
| 2026-05-05 22:43 | 40.65308 | -73.78592 | 18 ft | 9 kts | 60° |
| 2026-05-05 22:43 | 40.65342 | -73.78511 | 19 ft | 11 kts | 61° |
| 2026-05-05 22:43 | 40.65361 | -73.78407 | 19 ft | 13 kts | 101° |
| 2026-05-05 22:44 | 40.65320 | -73.78295 | 19 ft | 14 kts | 121° |
| 2026-05-05 22:44 | 40.65266 | -73.78175 | 19 ft | 16 kts | 122° |
| 2026-05-05 22:44 | 40.65206 | -73.78043 | 18 ft | 18 kts | 121° |
| 2026-05-05 22:44 | 40.65146 | -73.77911 | 18 ft | 18 kts | 121° |
| 2026-05-05 22:45 | 40.65080 | -73.77766 | 17 ft | 19 kts | 120° |
| 2026-05-05 22:45 | 40.65012 | -73.77616 | 18 ft | 17 kts | 121° |
| 2026-05-05 22:45 | 40.64961 | -73.77503 | 18 ft | 15 kts | 121° |
| 2026-05-05 22:45 | 40.64904 | -73.77379 | 19 ft | 16 kts | 121° |
| 2026-05-05 22:46 | 40.64843 | -73.77244 | 19 ft | 18 kts | 120° |
| 2026-05-05 22:46 | 40.64778 | -73.77102 | 18 ft | 19 kts | 122° |
| 2026-05-05 22:46 | 40.64725 | -73.76982 | 19 ft | 11 kts | 121° |
| 2026-05-05 22:46 | 40.64698 | -73.76927 | 18 ft | 4 kts | 122° |
| 2026-05-05 22:47 | 40.64680 | -73.76882 | 18 ft | 6 kts | 99° |
| 2026-05-05 22:47 | 40.64709 | -73.76833 | 18 ft | 9 kts | 33° |
| 2026-05-05 22:47 | 40.64779 | -73.76777 | 19 ft | 14 kts | 31° |
| 2026-05-05 22:47 | 40.64875 | -73.76703 | 19 ft | 18 kts | 31° |
| 2026-05-05 22:48 | 40.64989 | -73.76613 | 20 ft | 20 kts | 31° |
| 2026-05-05 22:48 | 40.65086 | -73.76534 | 21 ft | 11 kts | 41° |
| 2026-05-05 22:48 | 40.65093 | -73.76457 | 20 ft | 5 kts | 121° |
| 2026-05-05 22:48 | 40.65089 | -73.76449 | 21 ft | 0 kts | 122° |
| 2026-05-05 22:50 | 40.65086 | -73.76444 | 21 ft | 1 kts | 122° |
| 2026-05-05 22:51 | 40.65079 | -73.76428 | 21 ft | 3 kts | 122° |
| 2026-05-05 22:51 | 40.65066 | -73.76399 | 20 ft | 5 kts | 121° |
| 2026-05-05 22:51 | 40.65037 | -73.76359 | 20 ft | 7 kts | 166° |
| 2026-05-05 22:51 | 40.64989 | -73.76380 | 20 ft | 8 kts | 210° |
| 2026-05-05 22:52 | 40.64819 | -73.76510 | 19 ft | 68 kts | 212° |
| 2026-05-05 22:52 | 40.64155 | -73.77031 | 86 ft | 147 kts | 209° |
| 2026-05-05 22:52 | 40.63183 | -73.77804 | 844 ft | 177 kts | 211° |
| 2026-05-05 22:52 | 40.62315 | -73.79019 | 1973 ft | 194 kts | 244° |
| 2026-05-05 22:53 | 40.61827 | -73.80678 | 3212 ft | 201 kts | 250° |
| 2026-05-05 22:53 | 40.61353 | -73.82519 | 3910 ft | 218 kts | 251° |
| 2026-05-05 22:53 | 40.60881 | -73.84428 | 4703 ft | 229 kts | 251° |
| 2026-05-05 22:53 | 40.60305 | -73.86458 | 5336 ft | 244 kts | 248° |
| 2026-05-05 22:54 | 40.59660 | -73.88577 | 6099 ft | 250 kts | 249° |
| 2026-05-05 22:54 | 40.59032 | -73.90727 | 6896 ft | 254 kts | 250° |
| 2026-05-05 22:54 | 40.58375 | -73.92871 | 7600 ft | 259 kts | 249° |
| 2026-05-05 22:54 | 40.57687 | -73.95072 | 8307 ft | 261 kts | 250° |
| 2026-05-05 22:55 | 40.57004 | -73.97297 | 9055 ft | 263 kts | 250° |
| 2026-05-05 22:55 | 40.56316 | -73.99567 | 9728 ft | 267 kts | 251° |
| 2026-05-05 22:55 | 40.55642 | -74.01828 | 10293 ft | 273 kts | 251° |
| 2026-05-05 22:55 | 40.54911 | -74.04225 | 10591 ft | 290 kts | 250° |
| 2026-05-05 22:56 | 40.54140 | -74.06712 | 11172 ft | 294 kts | 250° |
| 2026-05-05 22:56 | 40.53368 | -74.09224 | 11874 ft | 296 kts | 250° |
| 2026-05-05 22:56 | 40.52607 | -74.11709 | 12581 ft | 297 kts | 250° |
| 2026-05-05 22:56 | 40.51827 | -74.14251 | 13298 ft | 300 kts | 250° |
| 2026-05-05 22:57 | 40.51041 | -74.16814 | 14017 ft | 302 kts | 250° |
| 2026-05-05 22:57 | 40.50251 | -74.19382 | 14657 ft | 306 kts | 250° |
| 2026-05-05 22:57 | 40.49456 | -74.21966 | 15322 ft | 309 kts | 250° |
| 2026-05-05 22:57 | 40.48644 | -74.24605 | 15997 ft | 312 kts | 250° |
| 2026-05-05 22:58 | 40.47820 | -74.27277 | 16669 ft | 316 kts | 250° |
| 2026-05-05 22:58 | 40.47001 | -74.29930 | 17334 ft | 319 kts | 250° |
| 2026-05-05 22:58 | 40.46160 | -74.32654 | 18030 ft | 323 kts | 250° |
| 2026-05-05 22:58 | 40.45308 | -74.35412 | 18668 ft | 327 kts | 250° |
| 2026-05-05 22:59 | 40.44442 | -74.38204 | 19311 ft | 330 kts | 251° |
| 2026-05-05 22:59 | 40.43570 | -74.41025 | 19958 ft | 335 kts | 251° |
| 2026-05-05 22:59 | 40.42692 | -74.43853 | 20592 ft | 339 kts | 251° |
| 2026-05-05 22:59 | 40.41794 | -74.46748 | 21214 ft | 343 kts | 251° |
| 2026-05-05 23:00 | 40.39977 | -74.52589 | 22388 ft | 351 kts | 251° |
| 2026-05-05 23:00 | 40.39046 | -74.55579 | 22989 ft | 355 kts | 251° |
| 2026-05-05 23:00 | 40.38110 | -74.58578 | 23565 ft | 359 kts | 251° |
| 2026-05-05 23:01 | 40.37160 | -74.61625 | 24101 ft | 362 kts | 251° |
| 2026-05-05 23:01 | 40.36195 | -74.64712 | 24651 ft | 365 kts | 251° |
| 2026-05-05 23:01 | 40.35239 | -74.67776 | 25182 ft | 368 kts | 251° |
| 2026-05-05 23:01 | 40.34256 | -74.70914 | 25678 ft | 372 kts | 251° |
| 2026-05-05 23:02 | 40.33265 | -74.74068 | 26162 ft | 375 kts | 251° |
| 2026-05-05 23:02 | 40.32263 | -74.77260 | 26624 ft | 378 kts | 251° |
| 2026-05-05 23:02 | 40.31270 | -74.80420 | 27058 ft | 382 kts | 251° |
| 2026-05-05 23:02 | 40.30248 | -74.83667 | 27503 ft | 385 kts | 251° |
| 2026-05-05 23:03 | 40.29223 | -74.86917 | 27928 ft | 388 kts | 251° |
| 2026-05-05 23:03 | 40.28185 | -74.90207 | 28346 ft | 391 kts | 251° |
| 2026-05-05 23:03 | 40.27154 | -74.93474 | 28749 ft | 393 kts | 251° |
| 2026-05-05 23:03 | 40.26102 | -74.96797 | 29135 ft | 396 kts | 251° |
| 2026-05-05 23:04 | 40.25038 | -75.00159 | 29517 ft | 398 kts | 251° |
| 2026-05-05 23:04 | 40.23975 | -75.03512 | 29770 ft | 395 kts | 251° |
| 2026-05-05 23:04 | 40.21841 | -75.10238 | 29875 ft | 412 kts | 251° |
| 2026-05-05 23:05 | 40.19618 | -75.17212 | 29883 ft | 414 kts | 251° |
| 2026-05-05 23:05 | 40.17402 | -75.24158 | 29894 ft | 415 kts | 250° |
| 2026-05-05 23:06 | 40.15189 | -75.31074 | 29879 ft | 415 kts | 250° |
| 2026-05-05 23:06 | 40.13400 | -75.38230 | 29898 ft | 411 kts | 259° |
| 2026-05-05 23:07 | 40.12417 | -75.45548 | 29889 ft | 409 kts | 265° |
| 2026-05-05 23:07 | 40.11758 | -75.52949 | 29891 ft | 409 kts | 265° |
| 2026-05-05 23:08 | 40.11115 | -75.60363 | 29898 ft | 410 kts | 265° |
| 2026-05-05 23:08 | 40.10470 | -75.67743 | 29900 ft | 410 kts | 265° |
| 2026-05-05 23:09 | 40.09818 | -75.75135 | 29879 ft | 411 kts | 265° |
| 2026-05-05 23:09 | 40.09158 | -75.82565 | 29895 ft | 411 kts | 265° |
| 2026-05-05 23:10 | 40.08496 | -75.89979 | 29881 ft | 411 kts | 265° |
| 2026-05-05 23:10 | 40.07831 | -75.97373 | 29894 ft | 412 kts | 265° |
| 2026-05-05 23:11 | 40.07154 | -76.04825 | 29881 ft | 411 kts | 265° |
| 2026-05-05 23:11 | 40.06482 | -76.12196 | 29853 ft | 411 kts | 265° |
| 2026-05-05 23:12 | 40.05797 | -76.19635 | 29847 ft | 411 kts | 265° |
| 2026-05-05 23:12 | 40.05227 | -76.25802 | 29862 ft | 411 kts | 265° |
| 2026-05-05 23:13 | 40.04539 | -76.33176 | 29847 ft | 411 kts | 265° |
| 2026-05-05 23:13 | 40.03729 | -76.41805 | 29855 ft | 411 kts | 264° |
| 2026-05-05 23:14 | 40.03146 | -76.47977 | 29844 ft | 411 kts | 264° |
| 2026-05-05 23:14 | 40.02440 | -76.55375 | 29851 ft | 410 kts | 264° |
| 2026-05-05 23:15 | 40.01729 | -76.62778 | 29832 ft | 410 kts | 264° |
| 2026-05-05 23:15 | 40.01019 | -76.70121 | 29857 ft | 409 kts | 264° |
| 2026-05-05 23:16 | 40.00300 | -76.77505 | 29847 ft | 410 kts | 264° |
| 2026-05-05 23:16 | 39.99581 | -76.84840 | 29856 ft | 409 kts | 264° |
| 2026-05-05 23:17 | 39.98853 | -76.92222 | 29857 ft | 410 kts | 264° |
| 2026-05-05 23:17 | 39.98118 | -76.99613 | 29853 ft | 409 kts | 264° |
| 2026-05-05 23:18 | 39.97385 | -77.06941 | 29850 ft | 409 kts | 264° |
| 2026-05-05 23:18 | 39.96648 | -77.14272 | 29856 ft | 409 kts | 264° |
| 2026-05-05 23:19 | 39.95900 | -77.21648 | 29846 ft | 409 kts | 264° |
| 2026-05-05 23:19 | 39.95240 | -77.28984 | 29856 ft | 409 kts | 266° |
| 2026-05-05 23:20 | 39.95290 | -77.36401 | 29837 ft | 408 kts | 272° |
| 2026-05-05 23:20 | 39.95528 | -77.43755 | 29849 ft | 408 kts | 273° |
| 2026-05-05 23:21 | 39.95771 | -77.51159 | 29835 ft | 408 kts | 273° |
| 2026-05-05 23:21 | 39.96005 | -77.58506 | 29848 ft | 408 kts | 273° |
| 2026-05-05 23:22 | 39.96237 | -77.65898 | 29835 ft | 408 kts | 272° |
| 2026-05-05 23:22 | 39.96462 | -77.73271 | 29841 ft | 408 kts | 272° |
| 2026-05-05 23:23 | 39.96684 | -77.80678 | 29837 ft | 408 kts | 272° |
| 2026-05-05 23:23 | 39.96901 | -77.88075 | 29842 ft | 406 kts | 272° |
| 2026-05-05 23:24 | 39.97111 | -77.95416 | 29824 ft | 407 kts | 272° |
| 2026-05-05 23:24 | 39.97319 | -78.02795 | 29840 ft | 406 kts | 272° |
| 2026-05-05 23:25 | 39.97521 | -78.10162 | 29827 ft | 406 kts | 272° |
| 2026-05-05 23:25 | 39.97717 | -78.17478 | 29852 ft | 406 kts | 272° |
| 2026-05-05 23:26 | 39.97910 | -78.24838 | 29842 ft | 405 kts | 272° |
| 2026-05-05 23:26 | 39.98096 | -78.32134 | 29858 ft | 405 kts | 272° |
| 2026-05-05 23:27 | 39.98217 | -78.36982 | 29858 ft | 404 kts | 272° |
| 2026-05-05 23:27 | 39.98288 | -78.39835 | 29841 ft | 404 kts | 272° |
| 2026-05-05 23:28 | 39.98464 | -78.47117 | 29851 ft | 404 kts | 272° |
| 2026-05-05 23:28 | 39.98637 | -78.54459 | 29871 ft | 403 kts | 272° |
| 2026-05-05 23:29 | 39.98805 | -78.61739 | 29856 ft | 403 kts | 272° |
| 2026-05-05 23:29 | 39.98968 | -78.69052 | 29670 ft | 403 kts | 271° |
| 2026-05-05 23:30 | 39.99049 | -78.72609 | 29728 ft | 379 kts | 271° |
| 2026-05-05 23:30 | 39.99119 | -78.75960 | 29768 ft | 364 kts | 271° |
| 2026-05-05 23:30 | 39.99262 | -78.82737 | 29851 ft | 385 kts | 271° |
| 2026-05-05 23:31 | 39.99406 | -78.89738 | 29869 ft | 387 kts | 271° |
| 2026-05-05 23:31 | 39.99476 | -78.93253 | 29745 ft | 388 kts | 271° |
| 2026-05-05 23:31 | 39.99546 | -78.96712 | 29446 ft | 375 kts | 270° |
| 2026-05-05 23:32 | 39.99611 | -79.00118 | 29248 ft | 382 kts | 270° |
| 2026-05-05 23:32 | 39.99681 | -79.03606 | 29538 ft | 386 kts | 270° |
| 2026-05-05 23:32 | 39.99745 | -79.07127 | 29820 ft | 387 kts | 270° |
| 2026-05-05 23:32 | 39.99807 | -79.10611 | 30075 ft | 388 kts | 270° |
| 2026-05-05 23:33 | 39.99871 | -79.14129 | 30311 ft | 387 kts | 271° |
| 2026-05-05 23:33 | 39.99936 | -79.17652 | 30052 ft | 385 kts | 271° |
| 2026-05-05 23:33 | 39.99998 | -79.21117 | 29947 ft | 385 kts | 270° |
| 2026-05-05 23:33 | 40.00059 | -79.24617 | 29892 ft | 387 kts | 270° |
| 2026-05-05 23:34 | 40.00179 | -79.31617 | 29873 ft | 387 kts | 270° |
| 2026-05-05 23:34 | 40.00294 | -79.38641 | 29890 ft | 387 kts | 270° |
| 2026-05-05 23:35 | 40.00404 | -79.45636 | 29878 ft | 386 kts | 270° |
| 2026-05-05 23:35 | 40.00509 | -79.52588 | 29885 ft | 386 kts | 270° |
| 2026-05-05 23:36 | 40.00610 | -79.59613 | 29897 ft | 387 kts | 270° |
| 2026-05-05 23:36 | 40.00708 | -79.66609 | 29884 ft | 386 kts | 270° |
| 2026-05-05 23:37 | 40.00801 | -79.73593 | 29888 ft | 387 kts | 270° |
| 2026-05-05 23:37 | 40.00889 | -79.80583 | 29892 ft | 387 kts | 270° |
| 2026-05-05 23:38 | 40.00975 | -79.87633 | 29522 ft | 385 kts | 270° |
| 2026-05-05 23:38 | 40.01015 | -79.91087 | 29243 ft | 383 kts | 270° |
| 2026-05-05 23:38 | 40.01054 | -79.94568 | 28970 ft | 382 kts | 270° |
| 2026-05-05 23:39 | 40.01093 | -79.98046 | 28695 ft | 380 kts | 270° |
| 2026-05-05 23:39 | 40.01129 | -80.01453 | 28430 ft | 379 kts | 270° |
| 2026-05-05 23:39 | 40.01166 | -80.04899 | 28173 ft | 377 kts | 270° |
| 2026-05-05 23:39 | 40.01200 | -80.08327 | 27912 ft | 376 kts | 270° |
| 2026-05-05 23:40 | 40.01233 | -80.11694 | 27661 ft | 375 kts | 270° |
| 2026-05-05 23:40 | 40.01265 | -80.15095 | 27409 ft | 373 kts | 270° |
| 2026-05-05 23:40 | 40.01297 | -80.18480 | 27151 ft | 372 kts | 270° |
| 2026-05-05 23:40 | 40.01327 | -80.21848 | 26892 ft | 371 kts | 270° |
| 2026-05-05 23:41 | 40.01356 | -80.25191 | 26650 ft | 370 kts | 270° |
| 2026-05-05 23:41 | 40.01385 | -80.28562 | 26400 ft | 370 kts | 270° |
| 2026-05-05 23:41 | 40.01411 | -80.31910 | 26157 ft | 368 kts | 270° |
| 2026-05-05 23:41 | 40.01438 | -80.35249 | 25910 ft | 367 kts | 270° |
| 2026-05-05 23:42 | 40.01463 | -80.38538 | 25669 ft | 366 kts | 270° |
| 2026-05-05 23:42 | 40.01487 | -80.41856 | 25432 ft | 365 kts | 269° |
| 2026-05-05 23:42 | 40.01510 | -80.45185 | 25187 ft | 364 kts | 269° |
| 2026-05-05 23:42 | 40.01532 | -80.48466 | 24940 ft | 363 kts | 269° |
| 2026-05-05 23:43 | 40.01553 | -80.51755 | 24677 ft | 362 kts | 269° |
| 2026-05-05 23:43 | 40.01573 | -80.55039 | 24436 ft | 361 kts | 269° |
| 2026-05-05 23:43 | 40.01593 | -80.58319 | 24215 ft | 360 kts | 269° |
| 2026-05-05 23:43 | 40.01610 | -80.61554 | 24013 ft | 359 kts | 269° |
| 2026-05-05 23:44 | 40.01628 | -80.64815 | 23930 ft | 358 kts | 269° |
| 2026-05-05 23:44 | 40.01644 | -80.68070 | 23883 ft | 359 kts | 269° |
| 2026-05-05 23:44 | 40.01659 | -80.71321 | 23862 ft | 359 kts | 269° |
| 2026-05-05 23:44 | 40.01674 | -80.74582 | 23850 ft | 359 kts | 269° |
| 2026-05-05 23:45 | 40.01591 | -80.77844 | 23840 ft | 359 kts | 263° |
| 2026-05-05 23:45 | 40.01127 | -80.81044 | 23604 ft | 358 kts | 257° |
| 2026-05-05 23:45 | 40.00526 | -80.84147 | 23376 ft | 356 kts | 255° |
| 2026-05-05 23:45 | 39.99869 | -80.87254 | 23115 ft | 354 kts | 255° |
| 2026-05-05 23:46 | 39.99091 | -80.90300 | 22841 ft | 353 kts | 250° |
| 2026-05-05 23:46 | 39.98215 | -80.93287 | 22581 ft | 351 kts | 250° |
| 2026-05-05 23:46 | 39.97324 | -80.96255 | 22315 ft | 349 kts | 249° |
| 2026-05-05 23:46 | 39.96447 | -80.99151 | 22065 ft | 347 kts | 249° |
| 2026-05-05 23:47 | 39.95557 | -81.02083 | 21811 ft | 346 kts | 249° |
| 2026-05-05 23:47 | 39.94672 | -81.05002 | 21556 ft | 344 kts | 249° |
| 2026-05-05 23:47 | 39.93792 | -81.07897 | 21307 ft | 343 kts | 249° |
| 2026-05-05 23:47 | 39.92915 | -81.10784 | 21064 ft | 341 kts | 249° |
| 2026-05-05 23:48 | 39.92043 | -81.13650 | 20815 ft | 339 kts | 249° |
| 2026-05-05 23:48 | 39.91184 | -81.16470 | 20574 ft | 338 kts | 249° |
| 2026-05-05 23:48 | 39.90317 | -81.19313 | 20332 ft | 337 kts | 249° |
| 2026-05-05 23:48 | 39.89453 | -81.22148 | 20091 ft | 334 kts | 249° |
| 2026-05-05 23:49 | 39.88594 | -81.24957 | 19854 ft | 333 kts | 249° |
| 2026-05-05 23:49 | 39.87750 | -81.27718 | 19537 ft | 332 kts | 249° |
| 2026-05-05 23:49 | 39.86895 | -81.30511 | 19180 ft | 329 kts | 249° |
| 2026-05-05 23:49 | 39.86045 | -81.33285 | 18832 ft | 327 kts | 249° |
| 2026-05-05 23:50 | 39.85204 | -81.36027 | 18482 ft | 325 kts | 249° |
| 2026-05-05 23:50 | 39.84376 | -81.38724 | 18136 ft | 323 kts | 249° |
| 2026-05-05 23:50 | 39.83539 | -81.41447 | 17752 ft | 321 kts | 248° |
| 2026-05-05 23:50 | 39.82710 | -81.44135 | 17364 ft | 318 kts | 248° |
| 2026-05-05 23:51 | 39.81868 | -81.46757 | 16984 ft | 316 kts | 249° |
| 2026-05-05 23:51 | 39.81083 | -81.49422 | 16603 ft | 314 kts | 249° |
| 2026-05-05 23:51 | 39.80309 | -81.52072 | 16283 ft | 310 kts | 249° |
| 2026-05-05 23:51 | 39.79553 | -81.54662 | 16042 ft | 309 kts | 249° |
| 2026-05-05 23:52 | 39.78786 | -81.57286 | 15799 ft | 309 kts | 249° |
| 2026-05-05 23:52 | 39.78024 | -81.59892 | 15561 ft | 307 kts | 249° |
| 2026-05-05 23:52 | 39.77261 | -81.62494 | 15323 ft | 306 kts | 249° |
| 2026-05-05 23:52 | 39.76514 | -81.65045 | 15094 ft | 304 kts | 248° |
| 2026-05-05 23:53 | 39.75754 | -81.67633 | 14857 ft | 304 kts | 248° |
| 2026-05-05 23:53 | 39.75000 | -81.70197 | 14616 ft | 302 kts | 248° |
| 2026-05-05 23:53 | 39.74257 | -81.72723 | 14378 ft | 301 kts | 248° |
| 2026-05-05 23:53 | 39.73509 | -81.75264 | 14146 ft | 299 kts | 248° |
| 2026-05-05 23:54 | 39.72758 | -81.77813 | 13908 ft | 300 kts | 248° |
| 2026-05-05 23:54 | 39.72024 | -81.80300 | 13677 ft | 298 kts | 248° |
| 2026-05-05 23:54 | 39.71282 | -81.82813 | 13412 ft | 296 kts | 248° |
| 2026-05-05 23:54 | 39.70544 | -81.85308 | 13152 ft | 296 kts | 248° |
| 2026-05-05 23:55 | 39.69802 | -81.87816 | 12892 ft | 296 kts | 248° |
| 2026-05-05 23:55 | 39.69071 | -81.90284 | 12650 ft | 295 kts | 248° |
| 2026-05-05 23:55 | 39.68330 | -81.92783 | 12395 ft | 295 kts | 247° |
| 2026-05-05 23:55 | 39.67601 | -81.95239 | 12151 ft | 294 kts | 247° |
| 2026-05-05 23:56 | 39.66868 | -81.97711 | 11909 ft | 293 kts | 247° |
| 2026-05-05 23:56 | 39.66134 | -82.00180 | 11651 ft | 293 kts | 247° |
| 2026-05-05 23:56 | 39.65400 | -82.02648 | 11411 ft | 292 kts | 247° |
| 2026-05-05 23:56 | 39.64662 | -82.05120 | 11178 ft | 293 kts | 247° |
| 2026-05-05 23:57 | 39.63931 | -82.07576 | 11083 ft | 291 kts | 247° |
| 2026-05-05 23:57 | 39.63463 | -82.10145 | 11016 ft | 297 kts | 266° |
| 2026-05-05 23:57 | 39.63902 | -82.12769 | 10997 ft | 306 kts | 284° |
| 2026-05-05 23:57 | 39.64759 | -82.15323 | 10999 ft | 309 kts | 290° |
| 2026-05-05 23:58 | 39.65754 | -82.17817 | 10993 ft | 310 kts | 292° |
| 2026-05-05 23:58 | 39.66814 | -82.20271 | 10884 ft | 312 kts | 295° |
| 2026-05-05 23:58 | 39.68015 | -82.22558 | 10626 ft | 297 kts | 299° |
| 2026-05-05 23:58 | 39.69192 | -82.24660 | 10364 ft | 283 kts | 299° |
| 2026-05-05 23:59 | 39.69958 | -82.26022 | 10205 ft | 279 kts | 299° |
| 2026-05-05 23:59 | 39.71102 | -82.28042 | 9979 ft | 276 kts | 298° |
| 2026-05-05 23:59 | 39.72692 | -82.30663 | 9677 ft | 280 kts | 304° |
| 2026-05-05 23:59 | 39.73570 | -82.31910 | 9510 ft | 282 kts | 306° |
| 2026-05-06 00:00 | 39.74930 | -82.33742 | 9263 ft | 281 kts | 307° |
| 2026-05-06 00:00 | 39.76343 | -82.35512 | 9018 ft | 283 kts | 311° |
| 2026-05-06 00:00 | 39.77845 | -82.37172 | 8769 ft | 282 kts | 312° |
| 2026-05-06 00:00 | 39.79354 | -82.38808 | 8514 ft | 282 kts | 312° |
| 2026-05-06 00:01 | 39.80850 | -82.40428 | 8263 ft | 282 kts | 312° |
| 2026-05-06 00:01 | 39.81792 | -82.41445 | 8109 ft | 281 kts | 313° |
| 2026-05-06 00:01 | 39.83300 | -82.43081 | 7853 ft | 282 kts | 313° |
| 2026-05-06 00:01 | 39.84790 | -82.44696 | 7599 ft | 280 kts | 313° |
| 2026-05-06 00:02 | 39.86298 | -82.46253 | 7317 ft | 275 kts | 320° |
| 2026-05-06 00:02 | 39.87972 | -82.47482 | 7086 ft | 273 kts | 325° |
| 2026-05-06 00:02 | 39.89643 | -82.48553 | 7022 ft | 267 kts | 327° |
| 2026-05-06 00:02 | 39.91315 | -82.49579 | 6936 ft | 265 kts | 328° |
| 2026-05-06 00:03 | 39.92992 | -82.50589 | 6874 ft | 264 kts | 328° |
| 2026-05-06 00:03 | 39.94666 | -82.51593 | 6821 ft | 265 kts | 328° |
| 2026-05-06 00:03 | 39.96353 | -82.52598 | 6773 ft | 266 kts | 328° |
| 2026-05-06 00:03 | 39.97859 | -82.53760 | 6570 ft | 237 kts | 306° |
| 2026-05-06 00:04 | 39.98537 | -82.55418 | 6517 ft | 193 kts | 272° |
| 2026-05-06 00:04 | 39.98389 | -82.57150 | 6175 ft | 191 kts | 248° |
| 2026-05-06 00:04 | 39.97878 | -82.58724 | 5810 ft | 187 kts | 245° |
| 2026-05-06 00:04 | 39.97659 | -82.60395 | 5440 ft | 193 kts | 263° |
| 2026-05-06 00:05 | 39.97813 | -82.63881 | 4685 ft | 183 kts | 265° |
| 2026-05-06 00:05 | 39.97903 | -82.65472 | 4264 ft | 174 kts | 266° |
| 2026-05-06 00:05 | 39.97999 | -82.67020 | 4074 ft | 167 kts | 265° |
| 2026-05-06 00:06 | 39.98081 | -82.68512 | 4018 ft | 169 kts | 266° |
| 2026-05-06 00:06 | 39.98172 | -82.70041 | 3989 ft | 173 kts | 266° |
| 2026-05-06 00:06 | 39.98264 | -82.71615 | 3793 ft | 170 kts | 266° |
| 2026-05-06 00:06 | 39.98349 | -82.73087 | 3577 ft | 152 kts | 265° |
| 2026-05-06 00:07 | 39.98422 | -82.74368 | 3340 ft | 136 kts | 264° |
| 2026-05-06 00:07 | 39.98493 | -82.75583 | 2994 ft | 133 kts | 263° |
| 2026-05-06 00:07 | 39.98558 | -82.76800 | 2578 ft | 135 kts | 265° |
| 2026-05-06 00:07 | 39.98635 | -82.78030 | 2187 ft | 136 kts | 267° |
| 2026-05-06 00:08 | 39.98698 | -82.79218 | 2068 ft | 130 kts | 267° |
| 2026-05-06 00:08 | 39.98764 | -82.80393 | 1904 ft | 131 kts | 268° |
| 2026-05-06 00:08 | 39.98841 | -82.81587 | 1747 ft | 133 kts | 270° |
| 2026-05-06 00:08 | 39.98910 | -82.82793 | 1541 ft | 132 kts | 269° |
| 2026-05-06 00:09 | 39.98967 | -82.83954 | 1381 ft | 130 kts | 270° |
| 2026-05-06 00:09 | 39.99044 | -82.85178 | 1233 ft | 136 kts | 271° |
| 2026-05-06 00:09 | 39.99112 | -82.86420 | 1002 ft | 137 kts | 271° |
| 2026-05-06 00:09 | 39.99180 | -82.87629 | 831 ft | 133 kts | 272° |
| 2026-05-06 00:10 | 39.99241 | -82.88725 | 820 ft | 107 kts | 275° |
| 2026-05-06 00:10 | 39.99284 | -82.89498 | 815 ft | 65 kts | 274° |
| 2026-05-06 00:10 | 39.99301 | -82.89797 | 814 ft | 22 kts | 274° |
| 2026-05-06 00:10 | 39.99330 | -82.89993 | 813 ft | 22 kts | 293° |
| 2026-05-06 00:11 | 39.99363 | -82.90074 | 814 ft | 22 kts | 300° |